createdAt,value
2023-03-29T00:01:00.704Z,5.05
2023-03-29T00:03:28.776Z,4.90
2023-03-29T00:06:02.889Z,5.18
2023-03-29T00:08:31.440Z,5.68
2023-03-29T00:11:01.000Z,5.07
2023-03-29T00:13:28.740Z,5.90
2023-03-29T00:15:56.550Z,5.13
2023-03-29T00:18:24.270Z,4.63
2023-03-29T00:20:55.279Z,5.65
2023-03-29T00:23:25.007Z,5.82
2023-03-29T00:25:53.689Z,5.05
2023-03-29T00:28:22.928Z,6.60
2023-03-29T00:30:51.317Z,7.10
2023-03-29T00:33:20.568Z,6.90
2023-03-29T00:35:49.381Z,5.17
2023-03-29T00:38:17.075Z,7.10
2023-03-29T00:40:44.866Z,7.32
2023-03-29T00:43:12.815Z,6.65
2023-03-29T00:45:42.175Z,7.75
2023-03-29T00:48:11.832Z,8.27
2023-03-29T00:50:42.073Z,7.65
2023-03-29T00:53:12.426Z,7.60
2023-03-29T00:55:42.896Z,8.43
2023-03-29T00:58:13.138Z,8.07
2023-03-29T01:00:44.391Z,7.25
2023-03-29T01:03:14.412Z,7.22
2023-03-29T01:05:44.292Z,10.07
2023-03-29T01:08:18.371Z,7.90
2023-03-29T01:10:48.599Z,7.78
2023-03-29T01:13:20.133Z,8.38
2023-03-29T01:15:49.203Z,7.30
2023-03-29T01:18:16.788Z,7.35
2023-03-29T01:20:53.883Z,7.85
2023-03-29T01:23:32.057Z,7.53
2023-03-29T01:26:04.078Z,5.83
2023-03-29T01:28:34.470Z,7.63
2023-03-29T01:31:07.395Z,10.38
2023-03-29T01:33:37.367Z,6.53
2023-03-29T01:36:09.169Z,9.38
2023-03-29T01:38:39.973Z,5.93
2023-03-29T01:41:07.917Z,6.50
2023-03-29T01:43:40.516Z,7.13
2023-03-29T01:46:09.174Z,6.72
2023-03-29T01:48:40.094Z,8.13
2023-03-29T01:51:10.000Z,6.63
2023-03-29T01:53:39.482Z,8.93
2023-03-29T01:56:09.560Z,6.70
2023-03-29T01:58:40.901Z,9.43
2023-03-29T02:01:10.454Z,6.00
2023-03-29T02:03:42.501Z,6.73
2023-03-29T02:06:12.211Z,6.30
2023-03-29T02:08:40.848Z,4.88
2023-03-29T02:11:08.678Z,8.15
2023-03-29T02:13:36.488Z,7.38
2023-03-29T02:16:09.591Z,5.30
2023-03-29T02:18:37.297Z,7.78
2023-03-29T02:21:05.140Z,5.97
2023-03-29T02:23:34.946Z,6.07
2023-03-29T02:26:03.360Z,8.48
2023-03-29T02:28:31.848Z,5.60
2023-03-29T02:31:03.167Z,6.72
2023-03-29T02:33:35.506Z,7.15
2023-03-29T02:36:04.999Z,6.07
2023-03-29T02:38:33.053Z,6.60
2023-03-29T02:41:01.079Z,7.93
2023-03-29T02:43:29.735Z,6.90
2023-03-29T02:45:57.589Z,8.52
2023-03-29T02:48:26.489Z,5.60
2023-03-29T02:50:57.376Z,6.97
2023-03-29T02:53:27.160Z,5.20
2023-03-29T02:55:54.704Z,6.05
2023-03-29T02:58:28.748Z,5.82
2023-03-29T03:00:57.478Z,8.45
2023-03-29T03:03:25.601Z,6.68
2023-03-29T03:05:53.871Z,5.40
2023-03-29T03:08:22.798Z,6.63
2023-03-29T03:10:50.485Z,7.70
2023-03-29T03:13:18.069Z,5.05
2023-03-29T03:15:49.098Z,5.22
2023-03-29T03:18:17.584Z,7.20
2023-03-29T03:20:46.937Z,8.05
2023-03-29T03:23:14.460Z,6.70
2023-03-29T03:25:43.377Z,5.82
2023-03-29T03:28:10.925Z,7.60
2023-03-29T03:30:38.568Z,5.43
2023-03-29T03:33:06.196Z,5.50
2023-03-29T03:35:34.861Z,5.30
2023-03-29T03:38:02.432Z,6.18
2023-03-29T03:40:29.969Z,6.00
2023-03-29T03:42:58.907Z,7.70
2023-03-29T03:45:26.620Z,7.82
2023-03-29T03:47:54.353Z,6.43
2023-03-29T03:50:21.976Z,6.10
2023-03-29T03:52:49.542Z,6.03
2023-03-29T03:55:17.770Z,6.20
2023-03-29T03:57:45.309Z,6.30
2023-03-29T04:00:20.327Z,5.97
2023-03-29T04:02:48.464Z,6.43
2023-03-29T04:05:17.110Z,5.32
2023-03-29T04:07:44.686Z,6.37
2023-03-29T04:10:12.263Z,5.43
2023-03-29T04:12:40.728Z,4.40
2023-03-29T04:15:08.739Z,6.95
2023-03-29T04:17:37.777Z,6.30
2023-03-29T04:20:11.047Z,6.17
2023-03-29T04:22:38.627Z,5.75
2023-03-29T04:25:08.177Z,5.80
2023-03-29T04:27:36.251Z,4.90
2023-03-29T04:30:03.892Z,5.30
2023-03-29T04:32:31.677Z,6.32
2023-03-29T04:35:00.574Z,5.15
2023-03-29T04:37:29.352Z,6.05
2023-03-29T04:39:57.213Z,6.25
2023-03-29T04:42:24.795Z,5.40
2023-03-29T04:44:53.233Z,6.20
2023-03-29T04:47:21.224Z,7.55
2023-03-29T04:49:48.752Z,6.70
2023-03-29T04:52:17.676Z,5.57
2023-03-29T04:54:45.234Z,8.20
2023-03-29T04:57:12.812Z,4.90
2023-03-29T04:59:40.390Z,6.80
2023-03-29T05:02:08.530Z,5.57
2023-03-29T05:04:36.576Z,5.65
2023-03-29T05:07:04.491Z,5.15
2023-03-29T05:09:35.461Z,4.88
2023-03-29T05:12:03.220Z,5.82
2023-03-29T05:14:30.841Z,6.38
2023-03-29T05:16:58.694Z,6.15
2023-03-29T05:19:27.891Z,5.90
2023-03-29T05:21:55.455Z,6.32
2023-03-29T05:24:23.020Z,7.15
2023-03-29T05:26:52.704Z,6.45
2023-03-29T05:29:20.309Z,6.13
2023-03-29T05:31:48.413Z,6.32
2023-03-29T05:34:16.014Z,6.72
2023-03-29T05:36:45.421Z,5.00
2023-03-29T05:39:13.012Z,6.93
2023-03-29T05:41:41.646Z,5.18
2023-03-29T05:44:10.634Z,7.00
2023-03-29T05:46:38.234Z,8.82
2023-03-29T05:49:06.462Z,6.15
2023-03-29T05:51:35.396Z,6.28
2023-03-29T05:54:03.159Z,6.53
2023-03-29T05:56:30.698Z,5.18
2023-03-29T05:58:58.740Z,6.90
2023-03-29T06:01:27.644Z,5.72
2023-03-29T06:03:56.423Z,7.35
2023-03-29T06:06:24.186Z,6.80
2023-03-29T06:08:51.799Z,6.82
2023-03-29T06:11:19.536Z,5.88
2023-03-29T06:13:47.073Z,6.15
2023-03-29T06:16:15.013Z,5.70
2023-03-29T06:18:44.837Z,5.90
2023-03-29T06:21:14.841Z,5.93
2023-03-29T06:23:42.442Z,5.47
2023-03-29T06:26:10.515Z,5.25
2023-03-29T06:28:38.085Z,4.95
2023-03-29T06:31:06.202Z,5.63
2023-03-29T06:33:34.402Z,5.90
2023-03-29T06:36:03.398Z,5.57
2023-03-29T06:38:31.220Z,4.85
2023-03-29T06:41:04.008Z,6.10
2023-03-29T06:43:33.324Z,5.90
2023-03-29T06:46:01.812Z,6.32
2023-03-29T06:48:29.577Z,6.18
2023-03-29T06:50:57.230Z,5.25
2023-03-29T06:53:27.239Z,5.38
2023-03-29T06:55:54.880Z,4.65
2023-03-29T06:58:22.756Z,5.88
2023-03-29T07:00:50.803Z,5.53
2023-03-29T07:03:23.461Z,5.82
2023-03-29T07:05:52.178Z,5.20
2023-03-29T07:08:21.312Z,4.05
2023-03-29T07:10:52.877Z,6.15
2023-03-29T07:13:20.514Z,5.63
2023-03-29T07:15:48.208Z,5.30
2023-03-29T07:18:18.372Z,6.88
2023-03-29T07:20:47.602Z,4.95
2023-03-29T07:23:15.355Z,4.57
2023-03-29T07:25:42.922Z,5.57
2023-03-29T07:28:12.593Z,5.22
2023-03-29T07:30:40.276Z,6.25
2023-03-29T07:33:09.611Z,4.93
2023-03-29T07:35:38.317Z,5.10
2023-03-29T07:38:05.934Z,6.30
2023-03-29T07:40:34.181Z,4.35
2023-03-29T07:43:03.032Z,6.00
2023-03-29T07:45:32.060Z,5.15
2023-03-29T07:48:00.558Z,5.85
2023-03-29T07:50:28.649Z,5.30
2023-03-29T07:52:56.891Z,4.80
2023-03-29T07:55:24.475Z,6.00
2023-03-29T07:57:52.021Z,5.10
2023-03-29T08:00:20.296Z,5.25
2023-03-29T08:02:50.759Z,5.50
2023-03-29T08:05:26.166Z,4.93
2023-03-29T08:08:01.360Z,5.38
2023-03-29T08:10:28.954Z,5.22
2023-03-29T08:12:56.722Z,4.90
2023-03-29T08:15:24.300Z,5.03
2023-03-29T08:17:53.334Z,4.90
2023-03-29T08:20:21.092Z,5.10
2023-03-29T08:22:48.894Z,4.85
2023-03-29T08:25:16.643Z,4.95
2023-03-29T08:27:44.779Z,6.10
2023-03-29T08:30:12.769Z,5.10
2023-03-29T08:32:40.358Z,4.97
2023-03-29T08:35:10.086Z,5.13
2023-03-29T08:37:38.047Z,5.13
2023-03-29T08:40:06.017Z,5.65
2023-03-29T08:42:42.862Z,5.73
2023-03-29T08:45:15.114Z,5.78
2023-03-29T08:47:46.672Z,6.10
2023-03-29T08:50:15.974Z,5.80
2023-03-29T08:52:46.727Z,5.93
2023-03-29T08:55:16.544Z,6.00
2023-03-29T08:57:46.312Z,5.75
2023-03-29T09:00:19.304Z,6.03
2023-03-29T09:02:47.211Z,5.93
2023-03-29T09:05:20.457Z,5.68
2023-03-29T09:07:48.328Z,5.83
2023-03-29T09:10:17.229Z,5.60
2023-03-29T09:12:52.027Z,6.40
2023-03-29T09:15:23.691Z,5.55
2023-03-29T09:17:56.747Z,5.70
2023-03-29T09:20:32.086Z,6.33
2023-03-29T09:23:08.854Z,6.80
2023-03-29T09:25:52.545Z,6.43
2023-03-29T09:28:23.249Z,6.45
2023-03-29T09:30:52.927Z,6.35
2023-03-29T09:33:24.240Z,6.43
2023-03-29T09:35:55.043Z,6.30
2023-03-29T09:38:23.578Z,5.45
2023-03-29T09:40:54.104Z,6.57
2023-03-29T09:43:27.139Z,6.38
2023-03-29T09:45:56.928Z,5.68
2023-03-29T09:48:26.204Z,7.55
2023-03-29T09:50:55.254Z,6.65
2023-03-29T09:53:22.913Z,6.45
2023-03-29T09:55:51.356Z,6.95
2023-03-29T09:58:21.237Z,6.80
2023-03-29T10:00:49.381Z,6.65
2023-03-29T10:03:21.153Z,6.63
2023-03-29T10:05:53.251Z,7.40
2023-03-29T10:08:23.557Z,6.43
2023-03-29T10:10:51.165Z,6.83
2023-03-29T10:13:21.995Z,6.90
2023-03-29T10:15:58.314Z,6.70
2023-03-29T10:18:26.570Z,7.43
2023-03-29T10:20:59.042Z,7.13
2023-03-29T10:23:31.247Z,8.43
2023-03-29T10:25:58.830Z,6.70
2023-03-29T10:28:28.068Z,7.85
2023-03-29T10:30:57.106Z,7.10
2023-03-29T10:33:25.735Z,8.65
2023-03-29T10:35:53.449Z,7.40
2023-03-29T10:38:22.671Z,7.80
2023-03-29T10:40:52.434Z,7.07
2023-03-29T10:43:22.867Z,7.60
2023-03-29T10:45:51.769Z,8.65
2023-03-29T10:48:19.835Z,7.47
2023-03-29T10:50:50.764Z,7.95
2023-03-29T10:53:23.706Z,7.80
2023-03-29T10:55:55.850Z,8.43
2023-03-29T10:58:30.356Z,7.50
2023-03-29T11:00:58.693Z,7.67
2023-03-29T11:03:38.407Z,8.15
2023-03-29T11:06:08.819Z,7.55
2023-03-29T11:08:46.265Z,7.68
2023-03-29T11:11:23.349Z,8.52
2023-03-29T11:13:54.462Z,7.73
2023-03-29T11:16:27.767Z,7.55
2023-03-29T11:19:07.906Z,7.43
2023-03-29T11:21:39.522Z,9.68
2023-03-29T11:24:20.969Z,6.93
2023-03-29T11:26:57.831Z,6.70
2023-03-29T11:29:28.670Z,7.97
2023-03-29T11:31:59.781Z,7.68
2023-03-29T11:34:30.474Z,6.63
2023-03-29T11:37:01.069Z,7.05
2023-03-29T11:39:31.601Z,6.67
2023-03-29T11:42:05.033Z,7.82
2023-03-29T11:44:33.292Z,7.25
2023-03-29T11:47:03.130Z,7.00
2023-03-29T11:49:34.248Z,6.63
2023-03-29T11:52:04.462Z,7.43
2023-03-29T11:54:35.922Z,6.90
2023-03-29T11:57:06.895Z,7.30
2023-03-29T11:59:40.412Z,7.22
2023-03-29T12:02:13.354Z,6.85
2023-03-29T12:04:44.208Z,7.20
2023-03-29T12:07:14.617Z,7.43
2023-03-29T12:09:44.786Z,6.78
2023-03-29T12:12:16.264Z,7.40
2023-03-29T12:14:48.892Z,8.43
2023-03-29T12:17:19.091Z,4.77
2023-03-29T12:19:49.939Z,8.02
2023-03-29T12:22:17.427Z,5.93
2023-03-29T12:24:45.875Z,7.35
2023-03-29T12:27:22.036Z,6.68
2023-03-29T12:29:56.387Z,6.33
2023-03-29T12:32:33.526Z,6.10
2023-03-29T12:35:06.221Z,6.20
2023-03-29T12:37:37.928Z,6.07
2023-03-29T12:40:10.671Z,6.55
2023-03-29T12:42:46.738Z,6.13
2023-03-29T12:45:18.156Z,5.32
2023-03-29T12:47:49.996Z,5.22
2023-03-29T12:50:23.341Z,6.03
2023-03-29T12:52:50.970Z,5.60
2023-03-29T12:55:23.209Z,5.87
2023-03-29T12:58:02.107Z,5.82
2023-03-29T13:00:33.762Z,5.82
2023-03-29T13:03:02.833Z,5.32
2023-03-29T13:05:32.315Z,5.70
2023-03-29T13:07:59.900Z,6.27
2023-03-29T13:10:35.087Z,6.28
2023-03-29T13:13:12.294Z,6.25
2023-03-29T13:15:40.026Z,5.40
2023-03-29T13:18:13.008Z,6.30
2023-03-29T13:20:46.618Z,5.97
2023-03-29T13:23:35.323Z,6.18
2023-03-29T13:26:12.163Z,6.43
2023-03-29T13:28:45.304Z,5.38
2023-03-29T13:31:20.149Z,5.65
2023-03-29T13:33:55.896Z,5.40
2023-03-29T13:36:31.920Z,5.10
2023-03-29T13:39:02.824Z,4.55
2023-03-29T13:41:33.944Z,4.70
2023-03-29T13:44:02.906Z,4.80
2023-03-29T13:46:37.796Z,4.90
2023-03-29T13:49:07.517Z,4.15
2023-03-29T13:51:38.001Z,5.07
2023-03-29T13:54:10.809Z,4.75
2023-03-29T13:56:41.087Z,4.22
2023-03-29T13:59:15.439Z,4.40
2023-03-29T14:01:47.740Z,4.28
2023-03-29T14:04:18.058Z,4.22
2023-03-29T14:06:49.603Z,4.22
2023-03-29T14:09:18.556Z,4.30
2023-03-29T14:11:47.570Z,3.80
2023-03-29T14:14:17.973Z,4.65
2023-03-29T14:16:45.677Z,4.68
2023-03-29T14:19:15.382Z,4.40
2023-03-29T14:21:43.366Z,4.10
2023-03-29T14:24:12.970Z,4.07
2023-03-29T14:26:44.528Z,4.30
2023-03-29T14:29:12.229Z,4.55
2023-03-29T14:31:42.258Z,4.35
2023-03-29T14:34:13.105Z,4.25
2023-03-29T14:36:41.270Z,4.40
2023-03-29T14:39:12.525Z,5.25
2023-03-29T14:41:40.424Z,4.15
2023-03-29T14:44:09.097Z,4.88
2023-03-29T14:46:37.106Z,5.07
2023-03-29T14:49:06.286Z,5.07
2023-03-29T14:51:34.369Z,4.57
2023-03-29T14:54:03.009Z,4.65
2023-03-29T14:56:32.774Z,5.35
2023-03-29T14:59:01.519Z,4.97
2023-03-29T15:01:29.349Z,5.50
2023-03-29T15:03:57.782Z,5.93
2023-03-29T15:06:27.377Z,5.15
2023-03-29T15:09:05.210Z,5.18
2023-03-29T15:11:34.281Z,4.70
2023-03-29T15:14:03.453Z,4.43
2023-03-29T15:16:31.497Z,4.43
2023-03-29T15:18:59.979Z,5.35
2023-03-29T15:21:32.071Z,5.15
2023-03-29T15:24:00.940Z,4.38
2023-03-29T15:26:31.080Z,4.80
2023-03-29T15:29:03.087Z,5.18
2023-03-29T15:31:34.715Z,5.65
2023-03-29T15:34:04.343Z,5.15
2023-03-29T15:36:34.672Z,5.30
2023-03-29T15:39:02.373Z,5.50
2023-03-29T15:41:29.978Z,6.50
2023-03-29T15:43:57.686Z,7.25
2023-03-29T15:46:25.506Z,7.75
2023-03-29T15:48:53.102Z,6.60
2023-03-29T15:51:20.667Z,7.07
2023-03-29T15:53:49.577Z,7.60
2023-03-29T15:56:18.448Z,8.45
2023-03-29T15:58:46.489Z,8.35
2023-03-29T16:01:23.438Z,8.18
2023-03-29T16:03:51.402Z,7.50
2023-03-29T16:06:22.114Z,8.30
2023-03-29T16:08:51.172Z,8.10
2023-03-29T16:11:19.093Z,8.80
2023-03-29T16:13:46.692Z,8.50
2023-03-29T16:16:14.425Z,8.83
2023-03-29T16:18:42.104Z,11.02
2023-03-29T16:21:12.639Z,11.50
2023-03-29T16:23:40.699Z,12.00
2023-03-29T16:26:12.475Z,10.90
2023-03-29T16:28:40.132Z,10.43
2023-03-29T16:31:07.758Z,10.23
2023-03-29T16:33:35.320Z,10.38
2023-03-29T16:36:03.484Z,10.88
2023-03-29T16:38:31.500Z,10.50
2023-03-29T16:40:59.090Z,10.73
2023-03-29T16:43:28.222Z,10.35
2023-03-29T16:45:55.793Z,11.07
2023-03-29T16:48:23.723Z,10.95
2023-03-29T16:50:51.761Z,11.50
2023-03-29T16:53:19.930Z,10.67
2023-03-29T16:55:47.544Z,11.98
2023-03-29T16:58:15.429Z,12.30
2023-03-29T17:00:47.906Z,12.05
2023-03-29T17:03:16.162Z,12.48
2023-03-29T17:05:47.265Z,11.57
2023-03-29T17:08:14.873Z,10.90
2023-03-29T17:10:42.536Z,11.63
2023-03-29T17:13:10.211Z,12.65
2023-03-29T17:15:39.714Z,12.40
2023-03-29T17:18:09.136Z,14.03
2023-03-29T17:20:39.406Z,12.80
2023-03-29T17:23:08.838Z,13.15
2023-03-29T17:25:36.555Z,13.75
2023-03-29T17:28:04.201Z,14.40
2023-03-29T17:30:31.745Z,14.60
2023-03-29T17:32:59.296Z,13.10
2023-03-29T17:35:28.584Z,14.35
2023-03-29T17:37:56.189Z,14.00
2023-03-29T17:40:23.731Z,12.02
2023-03-29T17:42:52.701Z,12.90
2023-03-29T17:45:20.583Z,13.48
2023-03-29T17:47:48.293Z,13.30
2023-03-29T17:50:16.252Z,13.05
2023-03-29T17:52:45.235Z,13.18
2023-03-29T17:55:13.679Z,13.03
2023-03-29T17:57:41.700Z,12.30
2023-03-29T18:00:12.120Z,13.88
2023-03-29T18:02:40.359Z,13.60
2023-03-29T18:05:09.475Z,14.00
2023-03-29T18:07:37.481Z,12.83
2023-03-29T18:10:07.592Z,12.35
2023-03-29T18:12:35.243Z,12.90
2023-03-29T18:15:03.044Z,13.13
2023-03-29T18:17:31.296Z,14.60
2023-03-29T18:19:59.017Z,12.57
2023-03-29T18:22:26.935Z,12.40
2023-03-29T18:24:55.002Z,14.27
2023-03-29T18:27:23.941Z,14.05
2023-03-29T18:29:51.799Z,12.27
2023-03-29T18:32:19.549Z,13.63
2023-03-29T18:34:47.334Z,12.80
2023-03-29T18:37:17.503Z,13.00
2023-03-29T18:39:47.086Z,13.10
2023-03-29T18:42:15.077Z,13.80
2023-03-29T18:44:44.078Z,13.87
2023-03-29T18:47:11.748Z,12.27
2023-03-29T18:49:39.303Z,13.13
2023-03-29T18:52:07.064Z,12.98
2023-03-29T18:54:34.617Z,13.27
2023-03-29T18:57:02.430Z,13.40
2023-03-29T18:59:30.003Z,13.05
2023-03-29T19:01:59.161Z,13.63
2023-03-29T19:04:27.314Z,13.00
2023-03-29T19:06:55.701Z,12.07
2023-03-29T19:09:23.330Z,13.73
2023-03-29T19:11:51.072Z,12.25
2023-03-29T19:14:23.419Z,14.15
2023-03-29T19:16:51.993Z,13.50
2023-03-29T19:19:21.076Z,12.65
2023-03-29T19:21:49.542Z,12.43
2023-03-29T19:24:17.513Z,12.98
2023-03-29T19:26:47.881Z,14.02
2023-03-29T19:29:15.749Z,13.38
2023-03-29T19:31:43.501Z,13.73
2023-03-29T19:34:11.514Z,11.50
2023-03-29T19:36:40.779Z,12.95
2023-03-29T19:39:08.385Z,13.93
2023-03-29T19:41:36.163Z,13.77
2023-03-29T19:44:03.848Z,13.52
2023-03-29T19:46:31.695Z,13.33
2023-03-29T19:49:00.471Z,12.32
2023-03-29T19:51:28.552Z,12.13
2023-03-29T19:53:57.724Z,13.52
2023-03-29T19:56:26.610Z,15.65
2023-03-29T19:58:54.542Z,13.60
2023-03-29T20:01:22.614Z,14.93
2023-03-29T20:03:50.561Z,14.77
2023-03-29T20:06:18.439Z,13.70
2023-03-29T20:08:46.313Z,16.52
2023-03-29T20:11:15.984Z,12.85
2023-03-29T20:13:44.265Z,15.15
2023-03-29T20:16:12.744Z,12.88
2023-03-29T20:18:40.396Z,14.05
2023-03-29T20:21:08.406Z,13.68
2023-03-29T20:23:36.391Z,13.03
2023-03-29T20:26:04.310Z,14.40
2023-03-29T20:28:33.197Z,13.48
2023-03-29T20:31:03.931Z,14.95
2023-03-29T20:33:31.650Z,12.02
2023-03-29T20:35:59.426Z,13.97
2023-03-29T20:38:27.146Z,13.15
2023-03-29T20:40:55.309Z,13.70
2023-03-29T20:43:23.206Z,15.05
2023-03-29T20:45:54.027Z,14.50
2023-03-29T20:48:24.813Z,16.43
2023-03-29T20:50:52.407Z,13.77
2023-03-29T20:53:20.673Z,12.70
2023-03-29T20:55:48.822Z,13.57
2023-03-29T20:58:16.641Z,13.63
2023-03-29T21:00:45.330Z,12.93
2023-03-29T21:03:14.345Z,14.07
2023-03-29T21:05:41.978Z,14.75
2023-03-29T21:08:09.540Z,13.57
2023-03-29T21:10:37.553Z,16.70
2023-03-29T21:13:05.092Z,14.37
2023-03-29T21:15:33.680Z,12.98
2023-03-29T21:18:01.456Z,13.88
2023-03-29T21:20:30.441Z,14.38
2023-03-29T21:22:58.073Z,13.77
2023-03-29T21:25:25.655Z,13.77
2023-03-29T21:27:53.218Z,14.13
2023-03-29T21:30:20.757Z,14.30
2023-03-29T21:32:48.403Z,13.05
2023-03-29T21:35:15.974Z,13.95
2023-03-29T21:37:44.962Z,13.43
2023-03-29T21:40:13.150Z,13.52
2023-03-29T21:42:40.808Z,14.15
2023-03-29T21:45:09.140Z,15.55
2023-03-29T21:47:36.667Z,14.27
2023-03-29T21:50:04.486Z,14.73
2023-03-29T21:52:32.078Z,14.20
2023-03-29T21:55:01.008Z,14.52
2023-03-29T21:57:28.582Z,15.10
2023-03-29T21:59:56.721Z,13.65
2023-03-29T22:02:24.341Z,13.83
2023-03-29T22:04:51.888Z,13.77
2023-03-29T22:07:22.607Z,13.32
2023-03-29T22:09:50.185Z,14.27
2023-03-29T22:12:19.401Z,14.20
2023-03-29T22:14:47.044Z,13.23
2023-03-29T22:17:15.984Z,14.15
2023-03-29T22:19:43.664Z,13.65
2023-03-29T22:22:13.762Z,14.15
2023-03-29T22:24:42.144Z,12.60
2023-03-29T22:27:09.924Z,13.27
2023-03-29T22:29:38.852Z,14.25
2023-03-29T22:32:06.897Z,13.82
2023-03-29T22:34:34.956Z,15.15
2023-03-29T22:37:02.523Z,14.25
2023-03-29T22:39:30.070Z,13.73
2023-03-29T22:41:57.614Z,15.20
2023-03-29T22:44:25.220Z,15.07
2023-03-29T22:46:54.121Z,13.63
2023-03-29T22:49:21.701Z,14.85
2023-03-29T22:51:49.308Z,14.83
2023-03-29T22:54:16.980Z,13.15
2023-03-29T22:56:45.584Z,14.60
2023-03-29T22:59:13.210Z,15.85
2023-03-29T23:01:40.933Z,15.35
2023-03-29T23:04:09.978Z,15.13
2023-03-29T23:06:37.516Z,12.35
2023-03-29T23:09:05.485Z,15.75
2023-03-29T23:11:33.147Z,13.98
2023-03-29T23:14:03.932Z,13.85
2023-03-29T23:16:31.781Z,14.43
2023-03-29T23:18:59.409Z,12.85
2023-03-29T23:21:28.756Z,14.55
2023-03-29T23:23:56.445Z,14.15
2023-03-29T23:26:24.272Z,13.52
2023-03-29T23:28:54.334Z,14.60
2023-03-29T23:31:23.837Z,14.23
2023-03-29T23:33:53.012Z,14.32
2023-03-29T23:36:21.423Z,15.55
2023-03-29T23:38:50.424Z,14.27
2023-03-29T23:41:18.672Z,14.00
2023-03-29T23:43:47.425Z,14.85
2023-03-29T23:46:16.260Z,13.88
2023-03-29T23:48:47.132Z,13.90
2023-03-29T23:51:14.813Z,13.75
2023-03-29T23:53:42.339Z,14.43
2023-03-29T23:56:11.852Z,15.60
2023-03-29T23:58:39.432Z,14.70
